Terminal Aerodrome Forecast
Issued by NWS

Home | Current Version | Previous Version | Graphics & Text | Print | Product List | Glossary On
Versions: 1 2 3 4 5 6 7 8 9 10 11 12 13 14 15 16 17 18 19 20 21 22 23 24 25 26 27 28 29 30 31 32 33 34 35 36
000
FTUS43 KLOT 302320
TAFORD
TAF
KORD 302320Z 3100/0106 10005KT P6SM FEW035
     FM310700 VRB03KT 4SM BR SKC
     FM311100 00000KT 2SM BR SKC
     FM311300 20004KT P6SM SKC
     FM312100 09006KT P6SM FEW045
     FM010100 VRB03KT P6SM FEW250=

USA.gov is the U.S. government's official web portal to all federal, state and local government web resources and services.